sensor_id;sensor_type;location;lat;lon;timestamp;pressure;altitude;pressure_sealevel;temperature;humidity
28310;BME280;15571;50.974;13.936;2023-12-29T00:01:29;99900.31;;;6.43;100.00
28310;BME280;15571;50.974;13.936;2023-12-29T00:04:32;99882.13;;;6.41;100.00
28310;BME280;15571;50.974;13.936;2023-12-29T00:07:34;99885.59;;;6.45;100.00
28310;BME280;15571;50.974;13.936;2023-12-29T00:10:36;99884.72;;;6.43;100.00
28310;BME280;15571;50.974;13.936;2023-12-29T00:13:38;99892.44;;;6.30;100.00
28310;BME280;15571;50.974;13.936;2023-12-29T00:16:40;99883.75;;;6.28;100.00
28310;BME280;15571;50.974;13.936;2023-12-29T00:19:44;99879.41;;;6.26;100.00
28310;BME280;15571;50.974;13.936;2023-12-29T00:22:46;99868.19;;;6.36;100.00
28310;BME280;15571;50.974;13.936;2023-12-29T00:25:48;99859.47;;;6.23;100.00
28310;BME280;15571;50.974;13.936;2023-12-29T00:28:53;99857.78;;;6.31;100.00
28310;BME280;15571;50.974;13.936;2023-12-29T00:31:57;99862.16;;;6.35;100.00
28310;BME280;15571;50.974;13.936;2023-12-29T00:35:02;99858.66;;;6.33;100.00
28310;BME280;15571;50.974;13.936;2023-12-29T00:38:04;99856.97;;;6.42;100.00
28310;BME280;15571;50.974;13.936;2023-12-29T00:41:08;99849.09;;;6.29;100.00
28310;BME280;15571;50.974;13.936;2023-12-29T00:44:10;99843.91;;;6.34;100.00
28310;BME280;15571;50.974;13.936;2023-12-29T00:47:12;99835.34;;;6.49;100.00
28310;BME280;15571;50.974;13.936;2023-12-29T00:50:16;99836.16;;;6.38;100.00
28310;BME280;15571;50.974;13.936;2023-12-29T00:53:18;99830.97;;;6.42;100.00
28310;BME280;15571;50.974;13.936;2023-12-29T00:56:20;99828.38;;;6.48;100.00
28310;BME280;15571;50.974;13.936;2023-12-29T00:59:22;99824.03;;;6.47;100.00
28310;BME280;15571;50.974;13.936;2023-12-29T01:02:23;99817.16;;;6.50;100.00
28310;BME280;15571;50.974;13.936;2023-12-29T01:05:27;99820.59;;;6.48;100.00
28310;BME280;15571;50.974;13.936;2023-12-29T01:08:29;99818.81;;;6.42;100.00
28310;BME280;15571;50.974;13.936;2023-12-29T01:11:31;99829.28;;;6.50;100.00
28310;BME280;15571;50.974;13.936;2023-12-29T01:14:33;99819.63;;;6.27;100.00
28310;BME280;15571;50.974;13.936;2023-12-29T01:17:35;99824.06;;;6.44;100.00
28310;BME280;15571;50.974;13.936;2023-12-29T01:20:38;99826.59;;;6.34;100.00
28310;BME280;15571;50.974;13.936;2023-12-29T01:23:41;99829.28;;;6.53;100.00
28310;BME280;15571;50.974;13.936;2023-12-29T01:26:43;99837.03;;;6.47;100.00
28310;BME280;15571;50.974;13.936;2023-12-29T01:29:45;99835.28;;;6.38;100.00
28310;BME280;15571;50.974;13.936;2023-12-29T01:32:47;99836.16;;;6.42;100.00
28310;BME280;15571;50.974;13.936;2023-12-29T01:35:50;99827.53;;;6.46;100.00
28310;BME280;15571;50.974;13.936;2023-12-29T01:38:52;99816.19;;;6.33;100.00
28310;BME280;15571;50.974;13.936;2023-12-29T01:41:55;99827.47;;;6.33;100.00
28310;BME280;15571;50.974;13.936;2023-12-29T01:44:56;99824.88;;;6.39;100.00
28310;BME280;15571;50.974;13.936;2023-12-29T01:47:58;99814.44;;;6.30;100.00
28310;BME280;15571;50.974;13.936;2023-12-29T01:51:04;99814.44;;;6.30;100.00
28310;BME280;15571;50.974;13.936;2023-12-29T01:54:06;99812.72;;;6.32;100.00
28310;BME280;15571;50.974;13.936;2023-12-29T01:57:08;99813.53;;;6.23;100.00
28310;BME280;15571;50.974;13.936;2023-12-29T02:00:11;99810.09;;;6.26;100.00
28310;BME280;15571;50.974;13.936;2023-12-29T02:03:15;99796.19;;;6.21;100.00
28310;BME280;15571;50.974;13.936;2023-12-29T02:06:18;99792.78;;;6.30;100.00
28310;BME280;15571;50.974;13.936;2023-12-29T02:09:24;99789.28;;;6.23;100.00
28310;BME280;15571;50.974;13.936;2023-12-29T02:12:26;99789.25;;;6.20;100.00
28310;BME280;15571;50.974;13.936;2023-12-29T02:15:28;99783.13;;;6.08;100.00
28310;BME280;15571;50.974;13.936;2023-12-29T02:18:30;99785.78;;;6.15;100.00
28310;BME280;15571;50.974;13.936;2023-12-29T02:21:35;99784.91;;;6.11;100.00
28310;BME280;15571;50.974;13.936;2023-12-29T02:24:37;99788.34;;;6.10;100.00
28310;BME280;15571;50.974;13.936;2023-12-29T02:27:43;99779.66;;;6.10;100.00
28310;BME280;15571;50.974;13.936;2023-12-29T02:30:49;99771.81;;;6.00;100.00
28310;BME280;15571;50.974;13.936;2023-12-29T02:33:53;99780.44;;;5.96;100.00
28310;BME280;15571;50.974;13.936;2023-12-29T02:36:55;99783.00;;;5.95;100.00
28310;BME280;15571;50.974;13.936;2023-12-29T02:39:58;99763.97;;;5.94;100.00
28310;BME280;15571;50.974;13.936;2023-12-29T02:43:01;99770.06;;;5.96;100.00
28310;BME280;15571;50.974;13.936;2023-12-29T02:46:04;99754.50;;;5.99;100.00
28310;BME280;15571;50.974;13.936;2023-12-29T02:49:06;99754.50;;;5.99;100.00
28310;BME280;15571;50.974;13.936;2023-12-29T02:52:11;99751.88;;;5.98;100.00
28310;BME280;15571;50.974;13.936;2023-12-29T02:55:13;99740.63;;;5.97;100.00
28310;BME280;15571;50.974;13.936;2023-12-29T02:58:17;99733.63;;;5.87;100.00
28310;BME280;15571;50.974;13.936;2023-12-29T03:01:19;99742.31;;;5.92;100.00
28310;BME280;15571;50.974;13.936;2023-12-29T03:04:20;99738.88;;;5.96;100.00
28310;BME280;15571;50.974;13.936;2023-12-29T03:07:22;99727.59;;;5.96;100.00
28310;BME280;15571;50.974;13.936;2023-12-29T03:10:24;99726.78;;;6.01;100.00
28310;BME280;15571;50.974;13.936;2023-12-29T03:13:28;99735.50;;;6.06;100.00
28310;BME280;15571;50.974;13.936;2023-12-29T03:16:31;99726.84;;;6.11;100.00
28310;BME280;15571;50.974;13.936;2023-12-29T03:19:33;99721.69;;;6.20;100.00
28310;BME280;15571;50.974;13.936;2023-12-29T03:22:36;99724.31;;;6.26;100.00
28310;BME280;15571;50.974;13.936;2023-12-29T03:25:38;99717.41;;;6.33;100.00
28310;BME280;15571;50.974;13.936;2023-12-29T03:28:41;99728.69;;;6.39;100.00
28310;BME280;15571;50.974;13.936;2023-12-29T03:31:43;99714.81;;;6.37;100.00
28310;BME280;15571;50.974;13.936;2023-12-29T03:34:51;99716.56;;;6.38;100.00
28310;BME280;15571;50.974;13.936;2023-12-29T03:37:53;99714.81;;;6.42;100.00
28310;BME280;15571;50.974;13.936;2023-12-29T03:40:55;99707.91;;;6.39;100.00
28310;BME280;15571;50.974;13.936;2023-12-29T03:43:59;99711.34;;;6.38;100.00
28310;BME280;15571;50.974;13.936;2023-12-29T03:47:01;99706.16;;;6.38;100.00
28310;BME280;15571;50.974;13.936;2023-12-29T03:50:03;99701.81;;;6.37;100.00
28310;BME280;15571;50.974;13.936;2023-12-29T03:53:05;99697.50;;;6.39;100.00
28310;BME280;15571;50.974;13.936;2023-12-29T03:56:07;99705.28;;;6.39;100.00
28310;BME280;15571;50.974;13.936;2023-12-29T03:59:14;99704.41;;;6.31;100.00
28310;BME280;15571;50.974;13.936;2023-12-29T04:02:15;99693.19;;;6.40;100.00
28310;BME280;15571;50.974;13.936;2023-12-29T04:05:19;99687.13;;;6.43;100.00
28310;BME280;15571;50.974;13.936;2023-12-29T04:08:21;99687.97;;;6.43;100.00
28310;BME280;15571;50.974;13.936;2023-12-29T04:11:23;99690.59;;;6.51;100.00
28310;BME280;15571;50.974;13.936;2023-12-29T04:14:26;99694.06;;;6.59;100.00
28310;BME280;15571;50.974;13.936;2023-12-29T04:17:28;99699.31;;;6.75;100.00
28310;BME280;15571;50.974;13.936;2023-12-29T04:20:30;99706.28;;;6.85;100.00
28310;BME280;15571;50.974;13.936;2023-12-29T04:23:32;99701.09;;;6.94;100.00
28310;BME280;15571;50.974;13.936;2023-12-29T04:26:35;99690.66;;;7.00;100.00
28310;BME280;15571;50.974;13.936;2023-12-29T04:29:38;99685.47;;;7.00;100.00
28310;BME280;15571;50.974;13.936;2023-12-29T04:32:40;99684.59;;;6.97;100.00
28310;BME280;15571;50.974;13.936;2023-12-29T04:35:42;99682.00;;;6.95;100.00
28310;BME280;15571;50.974;13.936;2023-12-29T04:38:43;99680.28;;;6.94;100.00
28310;BME280;15571;50.974;13.936;2023-12-29T04:41:45;99678.53;;;6.98;100.00
28310;BME280;15571;50.974;13.936;2023-12-29T04:44:49;99679.41;;;7.01;100.00
28310;BME280;15571;50.974;13.936;2023-12-29T04:47:51;99672.47;;;7.04;100.00
28310;BME280;15571;50.974;13.936;2023-12-29T04:50:53;99669.88;;;7.04;100.00
28310;BME280;15571;50.974;13.936;2023-12-29T04:53:57;99670.72;;;7.03;100.00
28310;BME280;15571;50.974;13.936;2023-12-29T04:56:59;99669.00;;;7.05;100.00
28310;BME280;15571;50.974;13.936;2023-12-29T05:00:06;99670.72;;;7.09;100.00
28310;BME280;15571;50.974;13.936;2023-12-29T05:03:11;99664.66;;;7.13;100.00
28310;BME280;15571;50.974;13.936;2023-12-29T05:06:13;99675.03;;;7.11;100.00
28310;BME280;15571;50.974;13.936;2023-12-29T05:09:18;99668.97;;;7.15;100.00
28310;BME280;15571;50.974;13.936;2023-12-29T05:12:20;99667.25;;;7.19;100.00
28310;BME280;15571;50.974;13.936;2023-12-29T05:15:23;99660.31;;;7.20;100.00
28310;BME280;15571;50.974;13.936;2023-12-29T05:18:25;99657.69;;;7.21;100.00
28310;BME280;15571;50.974;13.936;2023-12-29T05:21:31;99650.75;;;7.26;100.00
28310;BME280;15571;50.974;13.936;2023-12-29T05:24:33;99647.28;;;7.27;100.00
28310;BME280;15571;50.974;13.936;2023-12-29T05:27:37;99651.63;;;7.28;100.00
28310;BME280;15571;50.974;13.936;2023-12-29T05:30:41;99655.97;;;7.28;100.00
28310;BME280;15571;50.974;13.936;2023-12-29T05:33:43;99674.19;;;7.28;100.00
28310;BME280;15571;50.974;13.936;2023-12-29T05:36:45;99668.97;;;7.39;100.00
28310;BME280;15571;50.974;13.936;2023-12-29T05:39:47;99668.97;;;7.39;100.00
28310;BME280;15571;50.974;13.936;2023-12-29T05:42:49;99662.88;;;7.40;100.00
28310;BME280;15571;50.974;13.936;2023-12-29T05:45:53;99662.91;;;7.35;100.00
28310;BME280;15571;50.974;13.936;2023-12-29T05:48:55;99659.41;;;7.41;100.00
28310;BME280;15571;50.974;13.936;2023-12-29T05:51:57;99657.69;;;7.38;100.00
28310;BME280;15571;50.974;13.936;2023-12-29T05:54:59;99662.91;;;7.38;100.00
28310;BME280;15571;50.974;13.936;2023-12-29T05:58:01;99664.63;;;7.38;100.00
28310;BME280;15571;50.974;13.936;2023-12-29T06:01:05;99663.75;;;7.42;100.00
28310;BME280;15571;50.974;13.936;2023-12-29T06:04:07;99662.03;;;7.31;100.00
28310;BME280;15571;50.974;13.936;2023-12-29T06:07:09;99664.66;;;7.35;100.00
28310;BME280;15571;50.974;13.936;2023-12-29T06:10:11;99659.41;;;7.25;100.00
28310;BME280;15571;50.974;13.936;2023-12-29T06:13:13;99654.25;;;7.22;100.00
28310;BME280;15571;50.974;13.936;2023-12-29T06:16:21;99651.63;;;7.24;100.00
28310;BME280;15571;50.974;13.936;2023-12-29T06:19:24;99648.16;;;7.28;100.00
28310;BME280;15571;50.974;13.936;2023-12-29T06:22:26;99655.94;;;7.39;100.00
28310;BME280;15571;50.974;13.936;2023-12-29T06:25:28;99645.50;;;7.54;100.00
28310;BME280;15571;50.974;13.936;2023-12-29T06:28:30;99646.34;;;7.59;100.00
28310;BME280;15571;50.974;13.936;2023-12-29T06:31:34;99636.78;;;7.64;100.00
28310;BME280;15571;50.974;13.936;2023-12-29T06:34:36;99630.72;;;7.64;100.00
28310;BME280;15571;50.974;13.936;2023-12-29T06:37:38;99628.97;;;7.66;100.00
28310;BME280;15571;50.974;13.936;2023-12-29T06:40:40;99634.16;;;7.69;100.00
28310;BME280;15571;50.974;13.936;2023-12-29T06:43:42;99631.56;;;7.74;100.00
28310;BME280;15571;50.974;13.936;2023-12-29T06:46:46;99629.78;;;7.82;100.00
28310;BME280;15571;50.974;13.936;2023-12-29T06:49:48;99636.69;;;7.86;100.00
28310;BME280;15571;50.974;13.936;2023-12-29T06:52:50;99631.50;;;7.92;100.00
28310;BME280;15571;50.974;13.936;2023-12-29T06:55:52;99630.59;;;7.97;100.00
28310;BME280;15571;50.974;13.936;2023-12-29T06:58:54;99629.66;;;8.04;100.00
28310;BME280;15571;50.974;13.936;2023-12-29T07:02:00;99614.91;;;8.09;100.00
28310;BME280;15571;50.974;13.936;2023-12-29T07:05:02;99614.88;;;8.12;100.00
28310;BME280;15571;50.974;13.936;2023-12-29T07:08:04;99612.19;;;8.26;100.00
28310;BME280;15571;50.974;13.936;2023-12-29T07:11:09;99611.31;;;8.29;100.00
28310;BME280;15571;50.974;13.936;2023-12-29T07:14:14;99614.78;;;8.31;100.00
28310;BME280;15571;50.974;13.936;2023-12-29T07:17:17;99630.41;;;8.35;100.00
28310;BME280;15571;50.974;13.936;2023-12-29T07:20:19;99624.28;;;8.35;100.00
28310;BME280;15571;50.974;13.936;2023-12-29T07:23:23;99613.88;;;8.35;100.00
28310;BME280;15571;50.974;13.936;2023-12-29T07:26:25;99612.19;;;8.31;100.00
28310;BME280;15571;50.974;13.936;2023-12-29T07:29:27;99615.66;;;8.30;100.00
28310;BME280;15571;50.974;13.936;2023-12-29T07:32:30;99627.81;;;8.31;100.00
28310;BME280;15571;50.974;13.936;2023-12-29T07:35:33;99636.47;;;8.36;100.00
28310;BME280;15571;50.974;13.936;2023-12-29T07:38:35;99639.09;;;8.31;100.00
28310;BME280;15571;50.974;13.936;2023-12-29T07:41:39;99642.63;;;8.27;100.00
28310;BME280;15571;50.974;13.936;2023-12-29T07:44:41;99636.50;;;8.30;100.00
28310;BME280;15571;50.974;13.936;2023-12-29T07:47:44;99645.19;;;8.30;100.00
28310;BME280;15571;50.974;13.936;2023-12-29T07:50:46;99652.13;;;8.33;100.00
28310;BME280;15571;50.974;13.936;2023-12-29T07:53:48;99659.06;;;8.34;100.00
28310;BME280;15571;50.974;13.936;2023-12-29T07:56:50;99659.03;;;8.43;100.00
28310;BME280;15571;50.974;13.936;2023-12-29T07:59:53;99669.47;;;8.49;100.00
28310;BME280;15571;50.974;13.936;2023-12-29T08:02:56;99669.41;;;8.55;100.00
28310;BME280;15571;50.974;13.936;2023-12-29T08:05:59;99675.47;;;8.62;100.00
28310;BME280;15571;50.974;13.936;2023-12-29T08:09:01;99683.28;;;8.67;100.00
28310;BME280;15571;50.974;13.936;2023-12-29T08:12:04;99687.59;;;8.72;100.00
28310;BME280;15571;50.974;13.936;2023-12-29T08:15:06;99676.25;;;8.75;100.00
28310;BME280;15571;50.974;13.936;2023-12-29T08:18:10;99681.44;;;8.81;100.00
28310;BME280;15571;50.974;13.936;2023-12-29T08:21:18;99697.91;;;8.91;100.00
28310;BME280;15571;50.974;13.936;2023-12-29T08:24:20;99704.78;;;9.01;100.00
28310;BME280;15571;50.974;13.936;2023-12-29T08:27:22;99706.47;;;9.07;100.00
28310;BME280;15571;50.974;13.936;2023-12-29T08:30:24;99708.97;;;9.23;100.00
28310;BME280;15571;50.974;13.936;2023-12-29T08:33:28;99710.72;;;9.25;100.00
28310;BME280;15571;50.974;13.936;2023-12-29T08:36:30;99709.75;;;9.34;100.00
28310;BME280;15571;50.974;13.936;2023-12-29T08:39:32;99704.50;;;9.35;100.00
28310;BME280;15571;50.974;13.936;2023-12-29T08:42:34;99715.69;;;9.50;100.00
28310;BME280;15571;50.974;13.936;2023-12-29T08:45:36;99720.88;;;9.58;100.00
28310;BME280;15571;50.974;13.936;2023-12-29T08:48:40;99720.78;;;9.64;100.00
28310;BME280;15571;50.974;13.936;2023-12-29T08:51:45;99717.22;;;9.71;100.00
28310;BME280;15571;50.974;13.936;2023-12-29T08:54:49;99717.19;;;9.77;100.00
28310;BME280;15571;50.974;13.936;2023-12-29T08:57:51;99720.63;;;9.81;100.00
28310;BME280;15571;50.974;13.936;2023-12-29T09:00:56;99716.19;;;9.89;100.00
28310;BME280;15571;50.974;13.936;2023-12-29T09:03:59;99715.19;;;10.00;100.00
28310;BME280;15571;50.974;13.936;2023-12-29T09:07:04;99712.50;;;10.06;100.00
28310;BME280;15571;50.974;13.936;2023-12-29T09:10:06;99712.50;;;10.07;100.00
28310;BME280;15571;50.974;13.936;2023-12-29T09:13:11;99704.53;;;10.15;100.00
28310;BME280;15571;50.974;13.936;2023-12-29T09:16:13;99709.69;;;10.23;100.00
28310;BME280;15571;50.974;13.936;2023-12-29T09:19:16;99698.25;;;10.30;100.00
28310;BME280;15571;50.974;13.936;2023-12-29T09:22:18;99699.13;;;10.32;100.00
28310;BME280;15571;50.974;13.936;2023-12-29T09:25:21;99698.19;;;10.35;100.00
28310;BME280;15571;50.974;13.936;2023-12-29T09:28:22;99693.78;;;10.41;100.00
28310;BME280;15571;50.974;13.936;2023-12-29T09:31:24;99691.84;;;10.57;100.00
28310;BME280;15571;50.974;13.936;2023-12-29T09:34:28;99690.13;;;10.55;100.00
28310;BME280;15571;50.974;13.936;2023-12-29T09:37:29;99693.50;;;10.63;100.00
28310;BME280;15571;50.974;13.936;2023-12-29T09:40:31;99689.16;;;10.62;100.00
28310;BME280;15571;50.974;13.936;2023-12-29T09:43:33;99690.81;;;10.68;100.00
28310;BME280;15571;50.974;13.936;2023-12-29T09:46:38;99685.53;;;10.69;100.00
28310;BME280;15571;50.974;13.936;2023-12-29T09:49:41;99681.13;;;10.74;100.00
28310;BME280;15571;50.974;13.936;2023-12-29T09:52:44;99683.69;;;10.79;100.00
28310;BME280;15571;50.974;13.936;2023-12-29T09:55:49;99664.22;;;10.96;100.00
28310;BME280;15571;50.974;13.936;2023-12-29T09:58:52;99668.44;;;11.04;100.00
28310;BME280;15571;50.974;13.936;2023-12-29T10:01:58;99680.59;;;11.09;100.00
28310;BME280;15571;50.974;13.936;2023-12-29T10:05:05;99671.91;;;11.07;100.00
28310;BME280;15571;50.974;13.936;2023-12-29T10:08:12;99685.00;;;11.07;100.00
28310;BME280;15571;50.974;13.936;2023-12-29T10:11:15;99692.63;;;11.19;100.00
28310;BME280;15571;50.974;13.936;2023-12-29T10:14:22;99690.84;;;11.23;100.00
28310;BME280;15571;50.974;13.936;2023-12-29T10:17:35;99682.00;;;11.28;100.00
28310;BME280;15571;50.974;13.936;2023-12-29T10:20:42;99680.88;;;11.43;100.00
28310;BME280;15571;50.974;13.936;2023-12-29T10:23:48;99687.03;;;11.41;100.00
28310;BME280;15571;50.974;13.936;2023-12-29T10:26:54;99698.38;;;11.43;100.00
28310;BME280;15571;50.974;13.936;2023-12-29T10:29:56;99697.47;;;11.44;100.00
28310;BME280;15571;50.974;13.936;2023-12-29T10:33:00;99700.03;;;11.47;100.00
28310;BME280;15571;50.974;13.936;2023-12-29T10:36:05;99688.56;;;11.52;100.00
28310;BME280;15571;50.974;13.936;2023-12-29T10:39:08;99693.00;;;11.49;100.00
28310;BME280;15571;50.974;13.936;2023-12-29T10:42:10;99699.03;;;11.54;100.00
28310;BME280;15571;50.974;13.936;2023-12-29T10:45:15;99706.91;;;11.52;100.00
28310;BME280;15571;50.974;13.936;2023-12-29T10:48:21;99711.09;;;11.64;100.00
28310;BME280;15571;50.974;13.936;2023-12-29T10:51:28;99705.06;;;11.61;100.00
28310;BME280;15571;50.974;13.936;2023-12-29T10:54:30;99702.25;;;11.68;100.00
28310;BME280;15571;50.974;13.936;2023-12-29T10:57:32;99707.47;;;11.72;100.00
28310;BME280;15571;50.974;13.936;2023-12-29T11:00:34;99717.03;;;11.74;100.00
28310;BME280;15571;50.974;13.936;2023-12-29T11:03:37;99711.66;;;11.82;100.00
28310;BME280;15571;50.974;13.936;2023-12-29T11:06:43;99712.22;;;11.96;100.00
28310;BME280;15571;50.974;13.936;2023-12-29T11:09:47;99703.41;;;12.02;100.00
28310;BME280;15571;50.974;13.936;2023-12-29T11:12:49;99688.47;;;12.06;100.00
28310;BME280;15571;50.974;13.936;2023-12-29T11:15:52;99677.91;;;12.09;100.00
28310;BME280;15571;50.974;13.936;2023-12-29T11:18:59;99674.25;;;12.18;100.00
28310;BME280;15571;50.974;13.936;2023-12-29T11:22:06;99669.75;;;12.23;100.00
28310;BME280;15571;50.974;13.936;2023-12-29T11:25:09;99673.19;;;12.26;100.00
28310;BME280;15571;50.974;13.936;2023-12-29T11:28:12;99672.97;;;12.36;100.00
28310;BME280;15571;50.974;13.936;2023-12-29T11:31:14;99670.34;;;12.36;100.00
28310;BME280;15571;50.974;13.936;2023-12-29T11:34:18;99672.97;;;12.36;100.00
28310;BME280;15571;50.974;13.936;2023-12-29T11:37:26;99663.38;;;12.35;100.00
28310;BME280;15571;50.974;13.936;2023-12-29T11:40:30;99669.41;;;12.40;100.00
28310;BME280;15571;50.974;13.936;2023-12-29T11:43:36;99663.25;;;12.41;100.00
28310;BME280;15571;50.974;13.936;2023-12-29T11:46:38;99652.66;;;12.45;100.00
28310;BME280;15571;50.974;13.936;2023-12-29T11:50:02;99646.31;;;12.54;100.00
28310;BME280;15571;50.974;13.936;2023-12-29T11:53:07;99642.78;;;12.57;100.00
28310;BME280;15571;50.974;13.936;2023-12-29T11:56:14;99644.53;;;12.56;100.00
28310;BME280;15571;50.974;13.936;2023-12-29T11:59:17;99637.34;;;12.65;100.00
28310;BME280;15571;50.974;13.936;2023-12-29T12:02:26;99634.81;;;12.60;100.00
28310;BME280;15571;50.974;13.936;2023-12-29T12:08:46;99625.81;;;12.70;100.00
28310;BME280;15571;50.974;13.936;2023-12-29T12:11:48;99622.19;;;12.77;100.00
28310;BME280;15571;50.974;13.936;2023-12-29T12:14:51;99631.78;;;12.77;100.00
28310;BME280;15571;50.974;13.936;2023-12-29T12:17:53;99624.03;;;12.72;100.00
28310;BME280;15571;50.974;13.936;2023-12-29T12:20:55;99636.22;;;12.75;100.00
28310;BME280;15571;50.974;13.936;2023-12-29T12:23:58;99628.44;;;12.72;100.00
28310;BME280;15571;50.974;13.936;2023-12-29T12:27:01;99620.41;;;12.78;100.00
28310;BME280;15571;50.974;13.936;2023-12-29T12:30:04;99612.00;;;12.64;100.00
28310;BME280;15571;50.974;13.936;2023-12-29T12:33:07;99598.78;;;12.67;100.00
28310;BME280;15571;50.974;13.936;2023-12-29T12:36:11;99589.72;;;12.80;100.00
28310;BME280;15571;50.974;13.936;2023-12-29T12:39:17;99594.81;;;12.86;100.00
28310;BME280;15571;50.974;13.936;2023-12-29T12:42:19;99593.84;;;12.89;100.00
28310;BME280;15571;50.974;13.936;2023-12-29T12:45:21;99580.47;;;13.00;100.00
28310;BME280;15571;50.974;13.936;2023-12-29T12:48:24;99592.78;;;12.98;100.00
28310;BME280;15571;50.974;13.936;2023-12-29T12:51:30;99582.19;;;13.01;100.00
28310;BME280;15571;50.974;13.936;2023-12-29T12:54:34;99592.06;;;12.91;100.00
28310;BME280;15571;50.974;13.936;2023-12-29T12:57:36;99591.22;;;12.90;100.00
28310;BME280;15571;50.974;13.936;2023-12-29T13:00:38;99589.78;;;12.77;100.00
28310;BME280;15571;50.974;13.936;2023-12-29T13:03:40;99599.22;;;12.86;100.00
28310;BME280;15571;50.974;13.936;2023-12-29T13:06:43;99603.50;;;12.88;100.00
28310;BME280;15571;50.974;13.936;2023-12-29T13:09:46;99605.31;;;12.86;100.00
28310;BME280;15571;50.974;13.936;2023-12-29T13:12:52;99602.63;;;12.89;100.00
28310;BME280;15571;50.974;13.936;2023-12-29T13:15:55;99600.00;;;12.89;100.00
28310;BME280;15571;50.974;13.936;2023-12-29T13:19:14;99608.81;;;12.85;100.00
28310;BME280;15571;50.974;13.936;2023-12-29T13:22:16;99615.91;;;12.83;100.00
28310;BME280;15571;50.974;13.936;2023-12-29T13:25:24;99600.22;;;12.80;100.00
28310;BME280;15571;50.974;13.936;2023-12-29T13:28:31;99604.34;;;12.89;100.00
28310;BME280;15571;50.974;13.936;2023-12-29T13:31:34;99590.19;;;12.96;100.00
28310;BME280;15571;50.974;13.936;2023-12-29T13:34:43;99593.53;;;13.03;100.00
28310;BME280;15571;50.974;13.936;2023-12-29T13:37:50;99579.63;;;12.98;100.00
28310;BME280;15571;50.974;13.936;2023-12-29T13:41:01;99573.66;;;12.92;100.00
28310;BME280;15571;50.974;13.936;2023-12-29T13:44:04;99579.03;;;12.88;100.00
28310;BME280;15571;50.974;13.936;2023-12-29T13:47:06;99573.88;;;12.83;100.00
28310;BME280;15571;50.974;13.936;2023-12-29T13:50:09;99560.75;;;12.83;100.00
28310;BME280;15571;50.974;13.936;2023-12-29T13:53:15;99561.66;;;12.82;100.00
28310;BME280;15571;50.974;13.936;2023-12-29T13:56:18;99575.75;;;12.78;100.00
28310;BME280;15571;50.974;13.936;2023-12-29T13:59:28;99559.16;;;12.77;100.00
28310;BME280;15571;50.974;13.936;2023-12-29T14:02:31;99565.25;;;12.78;100.00
28310;BME280;15571;50.974;13.936;2023-12-29T14:05:35;99563.56;;;12.75;100.00
28310;BME280;15571;50.974;13.936;2023-12-29T14:08:38;99563.44;;;12.80;100.00
28310;BME280;15571;50.974;13.936;2023-12-29T14:11:44;99556.22;;;12.88;100.00
28310;BME280;15571;50.974;13.936;2023-12-29T14:14:48;99558.97;;;12.84;100.00
28310;BME280;15571;50.974;13.936;2023-12-29T14:17:51;99546.00;;;12.77;100.00
28310;BME280;15571;50.974;13.936;2023-12-29T14:20:58;99553.88;;;12.77;100.00
28310;BME280;15571;50.974;13.936;2023-12-29T14:24:01;99557.31;;;12.80;100.00
28310;BME280;15571;50.974;13.936;2023-12-29T14:27:06;99565.19;;;12.81;100.00
28310;BME280;15571;50.974;13.936;2023-12-29T14:30:17;99553.06;;;12.74;100.00
28310;BME280;15571;50.974;13.936;2023-12-29T14:33:20;99557.97;;;12.89;100.00
28310;BME280;15571;50.974;13.936;2023-12-29T14:36:22;99561.31;;;12.95;100.00
28310;BME280;15571;50.974;13.936;2023-12-29T14:39:24;99566.81;;;12.85;100.00
28310;BME280;15571;50.974;13.936;2023-12-29T14:42:27;99564.22;;;12.84;100.00
28310;BME280;15571;50.974;13.936;2023-12-29T14:45:29;99563.28;;;12.86;100.00
28310;BME280;15571;50.974;13.936;2023-12-29T14:48:31;99559.69;;;12.90;100.00
28310;BME280;15571;50.974;13.936;2023-12-29T14:51:33;99559.50;;;12.97;100.00
28310;BME280;15571;50.974;13.936;2023-12-29T14:54:35;99555.16;;;12.97;100.00
28310;BME280;15571;50.974;13.936;2023-12-29T14:57:38;99559.59;;;12.93;100.00
28310;BME280;15571;50.974;13.936;2023-12-29T15:00:43;99550.97;;;12.88;100.00
28310;BME280;15571;50.974;13.936;2023-12-29T15:03:48;99547.63;;;12.83;100.00
28310;BME280;15571;50.974;13.936;2023-12-29T15:06:52;99550.00;;;12.92;100.00
28310;BME280;15571;50.974;13.936;2023-12-29T15:09:53;99547.72;;;12.79;100.00
28310;BME280;15571;50.974;13.936;2023-12-29T15:12:59;99547.75;;;12.77;100.00
28310;BME280;15571;50.974;13.936;2023-12-29T15:16:04;99543.41;;;12.76;100.00
28310;BME280;15571;50.974;13.936;2023-12-29T15:19:07;99540.72;;;12.79;100.00
28310;BME280;15571;50.974;13.936;2023-12-29T15:22:09;99546.91;;;12.76;100.00
28310;BME280;15571;50.974;13.936;2023-12-29T15:25:14;99539.09;;;12.73;100.00
28310;BME280;15571;50.974;13.936;2023-12-29T15:28:17;99546.97;;;12.73;100.00
28310;BME280;15571;50.974;13.936;2023-12-29T15:31:19;99537.19;;;12.79;100.00
28310;BME280;15571;50.974;13.936;2023-12-29T15:34:25;99540.47;;;12.88;100.00
28310;BME280;15571;50.974;13.936;2023-12-29T15:37:26;99551.03;;;12.85;100.00
28310;BME280;15571;50.974;13.936;2023-12-29T15:40:28;99550.63;;;13.02;100.00
28310;BME280;15571;50.974;13.936;2023-12-29T15:43:34;99549.19;;;12.90;100.00
28310;BME280;15571;50.974;13.936;2023-12-29T15:46:36;99555.28;;;12.91;100.00
28310;BME280;15571;50.974;13.936;2023-12-29T15:49:38;99542.03;;;12.96;100.00
28310;BME280;15571;50.974;13.936;2023-12-29T15:52:40;99550.03;;;12.91;100.00
28310;BME280;15571;50.974;13.936;2023-12-29T15:55:42;99545.72;;;12.88;100.00